Time;durP1;ratioP1;P1;durP2;ratioP2;P2;SDS_P1;SDS_P2;PMS_P1;PMS_P2;Temp;Humidity;BMP_temperature;BMP_pressure;BME280_temperature;BME280_humidity;BME280_pressure;Samples;Min_cycle;Max_cycle;Signal;HPM_P1;HPM_P2
2022/09/13 04:00:47;;;;;;;9.13;7.33;;;15.40;99.90;;;;;;5798067;23;20532;-67
2022/09/13 04:03:14;;;;;;;7.70;6.97;;;15.30;99.90;;;;;;4956561;28;20522;-68
2022/09/13 04:05:41;;;;;;;9.60;8.60;;;15.40;99.90;;;;;;4956327;28;20456;-67
2022/09/13 04:08:08;;;;;;;8.23;7.43;;;15.40;99.90;;;;;;4956439;28;20466;-68
2022/09/13 04:10:36;;;;;;;9.30;8.50;;;15.40;99.90;;;;;;4955972;28;20979;-66
2022/09/13 04:13:03;;;;;;;10.27;9.00;;;15.50;99.90;;;;;;4956149;28;20931;-66
2022/09/13 04:15:30;;;;;;;8.90;8.00;;;15.40;99.90;;;;;;4956618;28;20507;-67
2022/09/13 04:17:59;;;;;;;8.83;7.73;;;15.40;99.90;;;;;;4956172;28;20466;-67
2022/09/13 04:20:27;;;;;;;8.00;7.30;;;15.40;99.90;;;;;;4956262;28;20459;-67
2022/09/13 04:22:53;;;;;;;9.10;6.67;;;15.40;99.90;;;;;;4956280;28;20526;-67
2022/09/13 04:25:22;;;;;;;6.40;5.87;;;15.30;99.90;;;;;;4956198;28;20871;-67
2022/09/13 04:27:49;;;;;;;6.73;6.03;;;15.30;99.90;;;;;;4956303;28;20451;-67
2022/09/13 04:30:15;;;;;;;6.87;6.27;;;15.30;99.90;;;;;;4956152;28;20463;-67
2022/09/13 04:32:44;;;;;;;5.73;5.33;;;15.30;99.90;;;;;;4955809;28;20957;-67
2022/09/13 04:35:12;;;;;;;6.03;5.43;;;15.40;99.90;;;;;;4956187;28;20494;-66
2022/09/13 04:37:38;;;;;;;8.47;6.03;;;15.40;99.90;;;;;;4955823;28;20998;-66
2022/09/13 04:40:06;;;;;;;7.27;6.70;;;15.40;99.90;;;;;;4956148;28;20455;-66
2022/09/13 04:42:33;;;;;;;7.27;6.57;;;15.40;99.90;;;;;;4955821;28;20475;-66
2022/09/13 04:45:00;;;;;;;7.80;7.00;;;15.40;99.90;;;;;;4955918;28;20455;-66
2022/09/13 04:47:26;;;;;;;8.13;6.77;;;15.40;99.90;;;;;;4956054;28;20452;-67
2022/09/13 04:49:53;;;;;;;8.50;7.80;;;15.40;99.90;;;;;;4956038;28;20952;-68
2022/09/13 04:52:21;;;;;;;8.10;7.20;;;15.50;99.90;;;;;;4954976;28;20467;-68
2022/09/13 04:54:48;;;;;;;7.67;6.93;;;15.50;99.90;;;;;;4955846;28;20448;-68
2022/09/13 04:57:15;;;;;;;9.67;7.37;;;15.50;99.90;;;;;;4955800;28;20559;-67
2022/09/13 04:59:42;;;;;;;9.40;6.90;;;15.50;99.90;;;;;;4956011;28;20540;-67
2022/09/13 05:02:09;;;;;;;6.73;6.23;;;15.50;99.90;;;;;;4956047;28;20479;-66
2022/09/13 05:04:36;;;;;;;6.03;5.50;;;15.60;99.90;;;;;;4956030;28;20483;-66
2022/09/13 05:07:03;;;;;;;8.47;6.37;;;15.70;99.90;;;;;;4956303;28;20526;-66
2022/09/13 05:09:31;;;;;;;11.50;6.30;;;15.70;99.90;;;;;;4956544;28;20486;-67
2022/09/13 05:11:58;;;;;;;6.13;5.67;;;15.80;99.90;;;;;;4955442;28;21037;-67
2022/09/13 05:14:25;;;;;;;6.93;5.73;;;15.80;99.90;;;;;;4955570;28;20811;-66
2022/09/13 05:16:52;;;;;;;7.30;6.40;;;15.80;99.90;;;;;;4955476;28;20514;-66
2022/09/13 05:19:18;;;;;;;6.80;6.17;;;15.90;99.90;;;;;;4955538;28;20522;-66
2022/09/13 05:21:45;;;;;;;6.33;5.83;;;15.90;99.90;;;;;;4955514;28;20514;-66
2022/09/13 05:24:12;;;;;;;10.07;6.53;;;16.00;99.90;;;;;;4955460;28;20490;-66
2022/09/13 05:26:40;;;;;;;7.30;6.57;;;16.00;99.90;;;;;;4955524;28;20459;-66
2022/09/13 05:29:06;;;;;;;7.10;6.60;;;16.10;99.90;;;;;;4955265;28;20459;-67
2022/09/13 05:31:35;;;;;;;6.97;6.10;;;16.10;99.90;;;;;;4955328;28;20483;-67
2022/09/13 05:34:05;;;;;;;6.67;6.07;;;16.10;99.90;;;;;;4955477;28;20526;-66
2022/09/13 05:36:32;;;;;;;8.57;6.63;;;16.10;99.90;;;;;;4955810;28;20466;-67
2022/09/13 05:38:59;;;;;;;6.10;5.57;;;16.20;99.90;;;;;;4955438;28;20519;-67
2022/09/13 05:41:26;;;;;;;8.30;5.93;;;16.20;99.90;;;;;;4955372;28;20480;-66
2022/09/13 05:43:54;;;;;;;6.43;5.80;;;16.20;99.90;;;;;;4955281;28;20479;-66
2022/09/13 05:46:22;;;;;;;7.67;6.20;;;16.30;99.90;;;;;;4955438;28;20542;-67
2022/09/13 05:48:49;;;;;;;7.80;6.83;;;16.30;99.90;;;;;;4955531;28;20462;-66
2022/09/13 05:51:18;;;;;;;7.03;6.33;;;16.30;99.90;;;;;;4955288;28;20480;-67
2022/09/13 05:53:46;;;;;;;12.50;6.50;;;16.30;99.90;;;;;;4955824;28;20452;-67
2022/09/13 05:56:14;;;;;;;6.93;6.23;;;16.30;99.90;;;;;;4955223;28;20459;-66
2022/09/13 05:58:43;;;;;;;8.77;6.00;;;16.30;99.90;;;;;;4955206;28;20455;-67
2022/09/13 06:01:13;;;;;;;8.60;6.13;;;16.40;99.90;;;;;;4954923;28;20491;-67
2022/09/13 06:03:39;;;;;;;10.83;6.43;;;16.50;99.90;;;;;;4956938;28;20491;-67
2022/09/13 06:06:07;;;;;;;7.10;6.40;;;16.50;99.90;;;;;;4958612;28;21036;-66
2022/09/13 06:08:35;;;;;;;8.87;6.70;;;16.60;99.90;;;;;;4958829;28;20459;-66
2022/09/13 06:11:04;;;;;;;7.23;6.53;;;16.60;99.90;;;;;;4958649;28;20558;-66
2022/09/13 06:13:31;;;;;;;6.97;6.37;;;16.70;99.90;;;;;;4958604;28;20458;-66
2022/09/13 06:15:59;;;;;;;9.07;5.80;;;16.80;99.90;;;;;;4958549;28;20451;-66
2022/09/13 06:18:28;;;;;;;9.17;6.60;;;17.00;99.90;;;;;;4958663;28;20486;-66
2022/09/13 06:20:59;;;;;;;6.53;5.93;;;17.20;99.90;;;;;;4958319;28;20479;-66
2022/09/13 06:23:26;;;;;;;10.63;6.87;;;17.20;99.90;;;;;;4958546;28;20566;-67
2022/09/13 06:26:00;;;;;;;7.10;6.20;;;17.30;99.90;;;;;;4958430;28;20444;-66
2022/09/13 06:28:26;;;;;;;11.37;6.67;;;17.30;99.90;;;;;;4958389;28;20478;-67
2022/09/13 06:30:58;;;;;;;7.87;7.07;;;17.40;99.90;;;;;;4958198;28;20566;-67
2022/09/13 06:33:27;;;;;;;7.90;7.10;;;17.30;99.90;;;;;;4958246;28;20441;-66
2022/09/13 06:35:53;;;;;;;8.80;6.27;;;17.30;99.90;;;;;;4958130;28;20546;-67
2022/09/13 06:38:20;;;;;;;10.70;7.50;;;17.40;99.90;;;;;;4958102;28;20514;-67
2022/09/13 06:40:47;;;;;;;9.03;6.80;;;17.30;99.90;;;;;;4957979;28;20476;-67
2022/09/13 06:43:14;;;;;;;11.70;7.33;;;17.30;99.90;;;;;;4958049;28;20515;-66
2022/09/13 06:45:41;;;;;;;7.50;6.90;;;17.30;99.90;;;;;;4957859;28;20526;-66
2022/09/13 06:48:07;;;;;;;8.60;6.77;;;17.30;99.90;;;;;;4957873;28;20455;-66
2022/09/13 06:50:35;;;;;;;9.10;6.37;;;17.50;99.90;;;;;;4957816;28;20468;-66
2022/09/13 06:53:02;;;;;;;7.47;6.60;;;17.80;99.90;;;;;;4957463;28;20790;-66
2022/09/13 06:55:29;;;;;;;6.53;5.83;;;18.30;99.90;;;;;;4957756;28;20487;-67
2022/09/13 06:57:56;;;;;;;9.63;6.07;;;18.80;99.90;;;;;;4958429;28;20510;-67
2022/09/13 07:00:22;;;;;;;8.00;5.83;;;19.30;99.90;;;;;;4957968;28;20463;-67
2022/09/13 07:02:51;;;;;;;7.17;6.20;;;19.70;99.90;;;;;;4958387;28;20475;-67
2022/09/13 07:05:19;;;;;;;8.00;6.50;;;20.10;99.90;;;;;;4957488;28;20490;-67
2022/09/13 07:07:47;;;;;;;7.57;5.50;;;20.50;99.90;;;;;;4957563;28;20499;-67
2022/09/13 07:10:14;;;;;;;8.80;5.60;;;21.10;99.90;;;;;;4957455;28;20459;-67
2022/09/13 07:12:41;;;;;;;12.03;5.77;;;21.50;99.90;;;;;;4957247;28;20566;-67
2022/09/13 07:15:08;;;;;;;9.73;5.50;;;21.80;99.90;;;;;;4956455;28;20451;-67
2022/09/13 07:17:35;;;;;;;8.50;5.40;;;22.30;99.90;;;;;;4957446;28;20571;-67
2022/09/13 07:20:04;;;;;;;6.53;5.93;;;22.80;99.90;;;;;;4957344;28;20514;-67
2022/09/13 07:22:31;;;;;;;6.93;5.27;;;23.10;99.90;;;;;;4957417;28;20479;-67
2022/09/13 07:25:00;;;;;;;9.47;5.50;;;23.00;99.90;;;;;;4957188;28;20554;-67
2022/09/13 07:27:27;;;;;;;6.80;5.53;;;22.80;99.90;;;;;;4957255;28;20455;-67
2022/09/13 07:29:53;;;;;;;5.57;5.03;;;22.60;99.90;;;;;;4957190;28;20977;-67
2022/09/13 07:32:21;;;;;;;6.30;5.70;;;22.50;99.90;;;;;;4956788;28;20843;-66
2022/09/13 07:34:49;;;;;;;8.50;5.60;;;22.40;99.90;;;;;;4957092;28;20451;-67
2022/09/13 07:37:15;;;;;;;6.20;5.60;;;22.30;99.90;;;;;;4957098;28;20859;-67
2022/09/13 07:39:42;;;;;;;6.97;4.90;;;22.40;99.90;;;;;;4957058;28;20470;-67
2022/09/13 07:42:10;;;;;;;5.07;4.07;;;22.60;99.90;;;;;;4956891;28;20479;-67
2022/09/13 07:44:37;;;;;;;5.57;4.93;;;23.00;99.90;;;;;;4956835;28;20483;-66
2022/09/13 07:47:04;;;;;;;5.10;4.70;;;23.40;99.90;;;;;;4956836;28;20506;-67
2022/09/13 07:49:30;;;;;;;5.63;4.10;;;23.90;99.90;;;;;;4956852;28;20456;-67
2022/09/13 07:51:57;;;;;;;5.30;4.40;;;24.40;99.90;;;;;;4956746;28;20539;-67
2022/09/13 07:54:24;;;;;;;4.00;3.70;;;24.80;99.90;;;;;;4956976;28;20459;-67
2022/09/13 07:56:50;;;;;;;6.43;3.90;;;25.20;99.90;;;;;;4956742;28;20456;-67
2022/09/13 07:59:19;;;;;;;5.47;4.20;;;25.40;99.90;;;;;;4956655;28;20459;-67
2022/09/13 08:01:47;;;;;;;6.10;3.40;;;25.50;99.90;;;;;;4956210;28;20582;-67
2022/09/13 08:04:17;;;;;;;4.53;3.40;;;25.60;99.30;;;;;;4956510;28;20488;-67
2022/09/13 08:06:44;;;;;;;5.87;3.90;;;25.40;99.90;;;;;;4956783;28;20810;-67
2022/09/13 08:09:12;;;;;;;3.70;3.40;;;25.30;99.50;;;;;;4956508;28;20459;-68
2022/09/13 08:11:40;;;;;;;4.27;3.30;;;25.10;99.40;;;;;;4956479;28;20485;-68
2022/09/13 08:14:07;;;;;;;7.63;4.03;;;25.00;99.50;;;;;;4956219;28;20436;-67
2022/09/13 08:16:35;;;;;;;5.43;3.97;;;24.90;99.90;;;;;;4956702;28;20883;-67
2022/09/13 08:19:05;;;;;;;4.23;3.13;;;24.70;99.90;;;;;;4956552;28;20455;-67
2022/09/13 08:21:34;;;;;;;4.40;4.00;;;24.80;99.90;;;;;;4956371;28;20669;-67
2022/09/13 08:24:01;;;;;;;5.80;3.83;;;24.90;99.90;;;;;;4955864;28;20990;-67
2022/09/13 08:26:27;;;;;;;6.17;3.90;;;25.10;99.90;;;;;;4955695;28;20939;-67
2022/09/13 08:28:57;;;;;;;5.30;4.33;;;25.30;99.90;;;;;;4956254;28;20462;-67
2022/09/13 08:31:24;;;;;;;4.07;3.67;;;25.60;99.50;;;;;;4955766;28;21045;-67
2022/09/13 08:33:53;;;;;;;3.70;3.30;;;25.90;99.00;;;;;;4956132;28;20542;-67
2022/09/13 08:36:22;;;;;;;10.50;3.20;;;26.10;97.90;;;;;;4956319;28;20551;-67
2022/09/13 08:38:51;;;;;;;3.30;3.00;;;26.40;97.40;;;;;;4955783;28;20948;-67
2022/09/13 08:41:53;;;;;;;2.80;2.60;;;26.80;96.20;;;;;;4955867;28;20819;-67
2022/09/13 08:44:27;;;;;;;3.27;2.50;;;27.10;95.70;;;;;;4931562;28;20482;-67
2022/09/13 08:46:58;;;;;;;3.50;2.60;;;27.40;94.40;;;;;;4955983;28;20498;-67
2022/09/13 08:49:30;;;;;;;3.20;2.70;;;27.50;93.80;;;;;;4956078;28;20444;-67
2022/09/13 08:52:01;;;;;;;4.90;2.70;;;27.40;93.40;;;;;;4955985;28;20475;-67
2022/09/13 08:54:28;;;;;;;2.87;2.67;;;27.40;93.70;;;;;;4955851;28;20444;-67
2022/09/13 08:57:01;;;;;;;3.57;3.30;;;27.50;94.70;;;;;;4956005;28;20459;-68
2022/09/13 08:59:50;;;;;;;7.10;3.23;;;27.60;93.70;;;;;;4955685;28;20446;-67
2022/09/13 09:02:28;;;;;;;7.50;3.80;;;27.80;93.40;;;;;;4955616;28;20526;-67
2022/09/13 09:05:03;;;;;;;3.83;2.60;;;27.70;92.30;;;;;;4955555;28;20468;-67
2022/09/13 09:07:35;;;;;;;4.00;3.43;;;27.70;92.90;;;;;;4955941;28;20482;-67
2022/09/13 09:10:05;;;;;;;8.27;4.57;;;27.50;92.20;;;;;;4956384;28;20593;-67
2022/09/13 09:12:37;;;;;;;4.90;3.97;;;27.50;92.70;;;;;;4956237;28;20483;-67
2022/09/13 09:15:11;;;;;;;3.37;3.07;;;27.40;92.70;;;;;;4955555;28;20447;-67
2022/09/13 09:17:47;;;;;;;4.00;3.70;;;27.20;93.20;;;;;;4955559;28;20444;-67
2022/09/13 09:20:25;;;;;;;3.20;3.00;;;26.90;93.90;;;;;;4955534;28;20848;-67
2022/09/13 09:22:54;;;;;;;4.70;2.60;;;26.70;93.70;;;;;;4955403;28;20790;-68
2022/09/13 09:25:23;;;;;;;3.60;2.70;;;26.60;93.10;;;;;;4955730;28;20480;-68
2022/09/13 09:27:50;;;;;;;3.90;3.27;;;26.30;93.10;;;;;;4955734;28;20452;-68
2022/09/13 09:30:17;;;;;;;3.83;3.53;;;26.40;95.30;;;;;;4955525;28;20455;-68
2022/09/13 09:32:56;;;;;;;4.60;4.20;;;26.50;95.00;;;;;;4955516;28;20806;-68
2022/09/13 09:35:37;;;;;;;3.20;3.00;;;26.80;93.30;;;;;;4955498;28;20921;-68
2022/09/13 09:38:30;;;;;;;6.83;2.90;;;27.10;93.40;;;;;;4956204;28;20527;-69
2022/09/13 09:40:59;;;;;;;2.50;2.40;;;27.50;94.10;;;;;;4959426;28;20514;-68
2022/09/13 09:43:30;;;;;;;2.60;2.50;;;27.90;93.20;;;;;;4959482;28;20455;-69
2022/09/13 09:45:58;;;;;;;2.60;2.37;;;28.20;92.20;;;;;;4959378;28;21004;-68
2022/09/13 09:48:29;;;;;;;2.50;2.30;;;28.40;91.70;;;;;;4959807;28;20478;-69
2022/09/13 09:50:59;;;;;;;2.83;2.43;;;28.50;91.40;;;;;;4959332;28;20487;-68
2022/09/13 09:53:30;;;;;;;3.60;3.30;;;28.60;90.40;;;;;;4959353;28;20851;-68
2022/09/13 09:56:00;;;;;;;3.70;1.93;;;28.70;87.20;;;;;;4959117;28;20491;-68
2022/09/13 09:58:40;;;;;;;2.40;2.30;;;28.90;85.60;;;;;;4959025;28;20443;-68
2022/09/13 10:01:17;;;;;;;2.73;2.30;;;28.90;85.50;;;;;;4958778;28;20509;-67
2022/09/13 10:03:50;;;;;;;2.13;1.97;;;28.80;83.10;;;;;;4958636;28;20915;-68
2022/09/13 10:06:23;;;;;;;2.43;2.33;;;28.90;83.50;;;;;;4958771;28;20468;-68
2022/09/13 10:08:57;;;;;;;2.77;2.57;;;29.20;81.80;;;;;;4958894;28;20444;-68
2022/09/13 10:11:26;;;;;;;2.53;2.33;;;29.90;79.90;;;;;;4958738;28;20483;-68
2022/09/13 10:14:01;;;;;;;2.00;1.90;;;30.60;79.10;;;;;;4958585;28;20451;-69
2022/09/13 10:16:29;;;;;;;2.07;1.93;;;31.40;75.50;;;;;;4958066;28;20935;-68
2022/09/13 10:19:23;;;;;;;5.67;1.90;;;31.90;73.20;;;;;;4958328;28;20466;-68
2022/09/13 10:22:02;;;;;;;2.10;1.90;;;32.30;70.00;;;;;;4958414;28;20479;-69
2022/09/13 10:24:30;;;;;;;3.17;1.67;;;32.60;69.20;;;;;;4958517;28;20443;-68
2022/09/13 10:26:58;;;;;;;2.10;2.00;;;32.50;70.60;;;;;;4958110;28;21031;-69
2022/09/13 10:29:26;;;;;;;4.80;1.90;;;32.80;67.00;;;;;;4958487;28;20459;-69
2022/09/13 10:31:56;;;;;;;2.13;1.77;;;33.20;64.60;;;;;;4958295;28;20569;-69
2022/09/13 10:34:26;;;;;;;3.87;2.20;;;33.40;64.60;;;;;;4958234;28;20462;-69
2022/09/13 10:36:56;;;;;;;8.87;8.17;;;33.70;66.10;;;;;;4958278;28;20456;-69
2022/09/13 10:39:27;;;;;;;1.93;1.70;;;34.40;60.60;;;;;;4958179;28;20466;-69
2022/09/13 10:41:56;;;;;;;1.90;1.80;;;34.60;59.10;;;;;;4958074;28;20471;-69
2022/09/13 10:44:31;;;;;;;4.60;1.80;;;34.40;59.20;;;;;;4958193;28;20515;-68
2022/09/13 10:47:00;;;;;;;1.67;1.57;;;34.10;57.10;;;;;;4958356;28;20485;-69
2022/09/13 10:49:45;;;;;;;1.43;1.43;;;34.10;56.50;;;;;;4957999;28;20459;-68
2022/09/13 10:52:26;;;;;;;1.50;1.17;;;34.10;55.50;;;;;;4957966;28;20479;-68
2022/09/13 10:54:55;;;;;;;1.30;1.30;;;34.10;58.20;;;;;;4958350;28;20458;-68
2022/09/13 10:57:34;;;;;;;4.23;1.30;;;33.80;58.40;;;;;;4957813;28;20459;-68
2022/09/13 11:00:01;;;;;;;2.70;1.20;;;33.90;56.70;;;;;;4958033;28;20468;-68
2022/09/13 11:02:52;;;;;;;1.73;1.63;;;33.70;55.70;;;;;;4957855;28;20881;-68
2022/09/13 11:05:24;;;;;;;1.03;1.00;;;33.40;55.60;;;;;;4957638;28;20463;-67
2022/09/13 11:08:15;;;;;;;1.30;1.20;;;33.40;55.70;;;;;;4957980;28;20450;-68
2022/09/13 11:10:55;;;;;;;4.43;1.30;;;33.30;54.20;;;;;;4957761;28;20529;-68
2022/09/13 11:13:31;;;;;;;1.43;1.10;;;33.10;53.40;;;;;;4957818;28;20479;-67
2022/09/13 11:16:05;;;;;;;2.43;1.70;;;32.80;53.20;;;;;;4957780;28;20440;-71
2022/09/13 11:19:02;;;;;;;2.53;1.33;;;32.70;55.30;;;;;;4958697;28;20443;-67
2022/09/13 11:21:41;;;;;;;3.50;1.73;;;32.60;57.50;;;;;;4958495;28;20471;-67
2022/09/13 11:24:32;;;;;;;1.33;1.33;;;32.60;55.30;;;;;;4958095;28;20494;-67
2022/09/13 11:27:06;;;;;;;1.13;1.10;;;32.50;53.70;;;;;;4957688;28;20819;-67
2022/09/13 11:29:56;;;;;;;2.57;1.50;;;32.30;54.40;;;;;;4957353;28;20439;-67
2022/09/13 11:32:33;;;;;;;1.23;1.23;;;32.10;59.10;;;;;;4957234;28;20484;-67
2022/09/13 11:35:18;;;;;;;3.47;2.90;;;31.70;57.30;;;;;;4957324;28;20471;-67
2022/09/13 11:37:53;;;;;;;2.00;1.33;;;31.30;57.00;;;;;;4957188;28;20451;-68
2022/09/13 11:40:35;;;;;;;1.40;1.20;;;31.40;58.30;;;;;;4956982;28;20443;-67
2022/09/13 11:43:22;;;;;;;1.57;1.13;;;31.50;57.50;;;;;;4957141;28;20495;-68
2022/09/13 11:46:01;;;;;;;1.30;1.20;;;31.40;56.90;;;;;;4957161;28;20463;-68
2022/09/13 11:48:44;;;;;;;1.10;1.10;;;31.50;57.70;;;;;;4957115;28;20435;-68
2022/09/13 11:51:20;;;;;;;1.77;1.63;;;31.50;58.70;;;;;;4957504;28;21042;-68
2022/09/13 11:54:10;;;;;;;1.93;1.40;;;31.90;57.70;;;;;;4956832;28;20514;-68
2022/09/13 11:56:41;;;;;;;1.27;1.27;;;32.00;57.90;;;;;;4956971;28;20436;-67
2022/09/13 11:59:18;;;;;;;1.13;1.13;;;32.10;57.20;;;;;;4956705;28;20494;-67
2022/09/13 12:01:49;;;;;;;1.30;1.30;;;31.80;58.30;;;;;;4955857;28;20550;-67
2022/09/13 12:04:21;;;;;;;1.23;1.13;;;31.70;59.60;;;;;;4957078;28;20440;-67
2022/09/13 12:06:52;;;;;;;1.47;1.40;;;31.80;54.90;;;;;;4957782;28;20471;-67
2022/09/13 12:09:23;;;;;;;1.30;1.30;;;31.60;55.40;;;;;;4956386;28;20908;-67
2022/09/13 12:11:54;;;;;;;3.23;1.17;;;31.40;56.20;;;;;;4956680;28;20881;-67
2022/09/13 12:14:27;;;;;;;1.00;1.00;;;31.40;56.60;;;;;;4957787;28;20444;-67
2022/09/13 12:16:59;;;;;;;1.33;1.23;;;31.40;56.20;;;;;;4956514;28;20440;-67
2022/09/13 12:19:30;;;;;;;1.50;1.23;;;31.50;55.40;;;;;;4956393;28;20495;-66
2022/09/13 12:22:00;;;;;;;1.43;1.33;;;31.60;52.40;;;;;;4956943;28;20483;-67
2022/09/13 12:24:34;;;;;;;2.00;1.63;;;31.60;54.90;;;;;;4956378;28;20860;-67
2022/09/13 12:27:07;;;;;;;1.20;1.20;;;31.50;55.40;;;;;;4956358;28;20467;-66
2022/09/13 12:29:40;;;;;;;1.77;1.20;;;31.20;54.70;;;;;;4956333;28;20436;-67
2022/09/13 12:32:10;;;;;;;1.30;1.20;;;31.20;55.40;;;;;;4956211;28;20486;-67
2022/09/13 12:34:43;;;;;;;1.07;1.07;;;31.10;55.20;;;;;;4956045;28;20490;-67
2022/09/13 12:37:33;;;;;;;2.10;1.20;;;31.00;53.90;;;;;;4956077;28;20498;-67
2022/09/13 12:40:22;;;;;;;0.97;0.97;;;30.90;53.70;;;;;;4956001;28;20452;-68
2022/09/13 12:43:18;;;;;;;1.00;0.93;;;30.80;53.40;;;;;;4956053;28;20452;-68
2022/09/13 12:46:12;;;;;;;3.57;2.50;;;30.80;53.50;;;;;;4956037;28;20463;-67
2022/09/13 12:49:00;;;;;;;0.93;0.93;;;30.80;54.00;;;;;;4956102;28;20444;-67
2022/09/13 12:51:41;;;;;;;1.03;1.00;;;30.80;53.60;;;;;;4955982;28;20480;-67
2022/09/13 12:54:54;;;;;;;1.17;1.00;;;30.90;54.00;;;;;;4955949;28;20469;-68
2022/09/13 12:57:32;;;;;;;0.90;0.90;;;31.20;53.70;;;;;;4896564;29;20438;-68
2022/09/13 13:00:11;;;;;;;0.93;0.90;;;31.20;51.80;;;;;;4952805;28;20954;-68
2022/09/13 13:02:42;;;;;;;1.10;1.10;;;31.30;53.90;;;;;;4956034;28;20553;-68
2022/09/13 13:05:20;;;;;;;1.83;1.20;;;31.20;51.00;;;;;;4955686;28;20436;-67
2022/09/13 13:07:52;;;;;;;1.00;1.00;;;31.10;52.30;;;;;;4955897;28;20502;-68
2022/09/13 13:10:30;;;;;;;1.10;1.10;;;31.00;52.40;;;;;;4955638;28;20504;-68
2022/09/13 13:13:09;;;;;;;2.00;1.00;;;31.00;52.00;;;;;;4956447;28;20495;-68
2022/09/13 13:16:05;;;;;;;0.87;0.87;;;31.00;51.80;;;;;;4959784;28;20439;-68
2022/09/13 13:18:44;;;;;;;1.37;1.37;;;31.00;53.00;;;;;;4959650;28;20526;-68
2022/09/13 13:21:39;;;;;;;1.13;1.13;;;30.90;54.70;;;;;;4960342;28;20491;-68
2022/09/13 13:24:52;;;;;;;1.20;1.20;;;31.00;53.50;;;;;;4959418;28;20847;-68
2022/09/13 13:27:41;;;;;;;0.90;0.90;;;31.10;51.80;;;;;;4959609;28;20467;-66
2022/09/13 13:30:55;;;;;;;1.90;1.27;;;31.00;51.80;;;;;;4959574;28;20440;-67
2022/09/13 13:33:26;;;;;;;0.97;0.97;;;31.10;51.20;;;;;;4959164;28;20933;-67
2022/09/13 13:35:54;;;;;;;1.30;1.10;;;31.00;51.80;;;;;;4959512;28;20845;-67
2022/09/13 13:38:47;;;;;;;5.63;1.10;;;30.90;52.40;;;;;;4958982;28;20893;-66
2022/09/13 13:41:38;;;;;;;2.53;1.20;;;30.90;51.80;;;;;;4959222;28;20944;-67
2022/09/13 13:44:38;;;;;;;1.87;1.43;;;30.80;53.00;;;;;;4959294;28;20455;-67
2022/09/13 13:47:38;;;;;;;1.20;1.20;;;30.90;52.80;;;;;;4958787;28;20479;-67
2022/09/13 13:50:15;;;;;;;2.57;1.10;;;31.00;51.80;;;;;;4958834;28;20829;-67
2022/09/13 13:52:55;;;;;;;0.80;0.80;;;31.10;52.60;;;;;;4959253;28;20439;-67
2022/09/13 13:55:42;;;;;;;1.43;1.17;;;31.10;53.20;;;;;;4959525;28;20475;-67
2022/09/13 13:58:38;;;;;;;0.80;0.80;;;30.70;52.40;;;;;;4959206;28;20998;-67
2022/09/13 14:01:05;;;;;;;0.97;0.97;;;30.40;53.40;;;;;;4957827;28;20570;-67
2022/09/13 14:03:51;;;;;;;1.17;0.93;;;30.20;52.90;;;;;;4959084;28;20465;-67
2022/09/13 14:06:28;;;;;;;2.77;1.57;;;30.10;54.10;;;;;;4958773;28;20467;-67
2022/09/13 14:09:04;;;;;;;1.27;1.17;;;29.90;53.00;;;;;;4958379;28;20450;-67
2022/09/13 14:11:43;;;;;;;3.90;1.00;;;29.80;52.50;;;;;;4958673;28;20534;-67
2022/09/13 14:14:29;;;;;;;1.93;1.23;;;29.70;53.10;;;;;;4958669;28;20446;-67
2022/09/13 14:17:18;;;;;;;1.00;0.90;;;29.60;52.40;;;;;;4958448;28;20446;-67
2022/09/13 14:19:47;;;;;;;1.73;0.80;;;29.70;54.10;;;;;;4958681;28;20849;-67
2022/09/13 14:22:18;;;;;;;0.87;0.87;;;29.60;52.90;;;;;;4958564;28;20550;-67
2022/09/13 14:24:48;;;;;;;4.37;1.00;;;29.70;55.90;;;;;;4958475;28;20495;-66
2022/09/13 14:27:18;;;;;;;3.83;0.93;;;29.70;52.70;;;;;;4958382;28;20463;-67
2022/09/13 14:29:46;;;;;;;1.20;0.87;;;29.90;53.90;;;;;;4958476;28;20491;-67
2022/09/13 14:32:17;;;;;;;0.80;0.80;;;29.90;51.50;;;;;;4957958;28;21045;-67
2022/09/13 14:34:52;;;;;;;0.70;0.70;;;30.10;51.40;;;;;;4958334;28;20451;-67
2022/09/13 14:37:23;;;;;;;1.23;0.70;;;30.20;50.00;;;;;;4959148;28;20490;-67
2022/09/13 14:40:00;;;;;;;1.00;0.87;;;30.20;47.10;;;;;;4958290;28;20444;-67
2022/09/13 14:42:27;;;;;;;0.60;0.60;;;30.30;48.70;;;;;;4958368;28;20478;-67
2022/09/13 14:44:55;;;;;;;0.60;0.60;;;30.30;48.30;;;;;;4958074;28;20518;-66
2022/09/13 14:47:28;;;;;;;0.60;0.60;;;30.40;47.60;;;;;;4958147;28;20506;-66
2022/09/13 14:50:03;;;;;;;1.13;0.87;;;30.50;47.50;;;;;;4958393;28;20451;-67
2022/09/13 14:52:32;;;;;;;0.80;0.80;;;30.70;48.30;;;;;;4958698;28;20558;-67
2022/09/13 14:55:03;;;;;;;3.03;0.73;;;30.80;49.60;;;;;;4958081;28;20459;-67
2022/09/13 14:57:33;;;;;;;0.70;0.60;;;30.80;49.20;;;;;;4958083;28;20436;-67
2022/09/13 15:00:05;;;;;;;0.70;0.70;;;30.80;48.90;;;;;;4958353;28;20451;-67
2022/09/13 15:02:37;;;;;;;0.80;0.80;;;30.80;46.50;;;;;;4957490;28;20995;-68
2022/09/13 15:05:08;;;;;;;0.70;0.70;;;30.70;47.60;;;;;;4957834;28;20988;-68
2022/09/13 15:07:36;;;;;;;1.90;0.70;;;30.70;50.00;;;;;;4957758;28;20472;-68
2022/09/13 15:10:20;;;;;;;0.80;0.80;;;30.50;48.50;;;;;;4957500;28;20514;-68
2022/09/13 15:12:52;;;;;;;0.80;0.80;;;30.50;50.10;;;;;;4957744;28;20514;-68
2022/09/13 15:15:26;;;;;;;1.10;1.00;;;30.40;48.60;;;;;;4957604;28;20456;-68
2022/09/13 15:17:55;;;;;;;0.90;0.90;;;30.30;48.70;;;;;;4957851;28;20436;-68
2022/09/13 15:20:22;;;;;;;0.80;0.80;;;30.20;49.10;;;;;;4957521;28;20483;-68
2022/09/13 15:22:52;;;;;;;0.60;0.60;;;30.00;50.00;;;;;;4957557;28;20451;-68
2022/09/13 15:25:23;;;;;;;1.50;0.83;;;29.80;50.10;;;;;;4958360;28;20763;-67
2022/09/13 15:27:51;;;;;;;1.30;0.60;;;29.70;52.30;;;;;;4957334;28;20471;-67
2022/09/13 15:30:24;;;;;;;8.40;1.20;;;29.60;50.50;;;;;;4957135;28;20456;-66
2022/09/13 15:33:15;;;;;;;3.07;0.83;;;29.40;52.70;;;;;;4957205;28;20455;-66
2022/09/13 15:35:43;;;;;;;1.83;0.80;;;29.30;51.50;;;;;;4956401;28;20499;-66
2022/09/13 15:38:34;;;;;;;2.60;1.00;;;29.20;52.20;;;;;;4957001;28;20452;-66
2022/09/13 15:41:12;;;;;;;2.10;1.57;;;29.00;53.40;;;;;;4942620;28;20479;-66
2022/09/13 15:43:39;;;;;;;4.13;1.03;;;29.00;52.90;;;;;;4956599;28;20911;-66
2022/09/13 15:46:06;;;;;;;2.77;1.00;;;28.80;53.50;;;;;;4956925;28;20462;-67
2022/09/13 15:48:35;;;;;;;1.70;1.20;;;28.80;54.60;;;;;;4956873;28;20494;-67
2022/09/13 15:51:11;;;;;;;1.10;1.10;;;28.70;54.90;;;;;;4956695;28;20475;-67
2022/09/13 15:53:39;;;;;;;1.33;1.20;;;28.60;54.50;;;;;;4956889;28;20479;-68
2022/09/13 15:56:08;;;;;;;1.00;1.00;;;28.60;56.10;;;;;;4957088;28;20452;-68
2022/09/13 15:58:36;;;;;;;4.87;1.30;;;28.60;55.90;;;;;;4956729;28;20510;-68
2022/09/13 16:01:04;;;;;;;1.70;1.20;;;28.50;55.00;;;;;;4956489;28;20491;-67
2022/09/13 16:03:31;;;;;;;1.07;1.07;;;28.50;56.10;;;;;;4956648;28;20455;-61
2022/09/13 16:05:58;;;;;;;1.30;1.20;;;28.50;56.40;;;;;;4956530;28;20526;-61
2022/09/13 16:08:25;;;;;;;1.53;1.20;;;28.40;56.50;;;;;;4956607;28;20459;-61
2022/09/13 16:10:52;;;;;;;1.63;1.53;;;28.40;57.40;;;;;;4956278;28;20534;-61
2022/09/13 16:13:20;;;;;;;2.50;1.47;;;28.30;56.90;;;;;;4956079;28;20806;-61
2022/09/13 16:15:47;;;;;;;1.83;1.33;;;28.30;58.20;;;;;;4956551;28;20518;-61
2022/09/13 16:18:15;;;;;;;1.37;1.27;;;28.10;57.30;;;;;;4956247;28;20448;-61
2022/09/13 16:20:41;;;;;;;1.37;1.27;;;28.10;57.70;;;;;;4956049;28;20479;-61
2022/09/13 16:23:08;;;;;;;1.37;1.10;;;28.00;58.30;;;;;;4956475;28;20495;-60
2022/09/13 16:25:36;;;;;;;2.50;2.20;;;28.00;59.10;;;;;;4956132;28;20463;-60
2022/09/13 16:28:04;;;;;;;4.33;1.60;;;27.90;59.30;;;;;;4955718;28;21008;-61
2022/09/13 16:30:33;;;;;;;1.97;1.40;;;27.80;60.50;;;;;;4955867;28;20455;-61
2022/09/13 16:33:00;;;;;;;4.87;1.43;;;27.70;61.00;;;;;;4956181;28;20452;-61
2022/09/13 16:35:29;;;;;;;1.53;1.47;;;27.60;62.50;;;;;;4956674;28;20586;-60
2022/09/13 16:37:56;;;;;;;1.50;1.20;;;27.60;64.50;;;;;;4957903;28;20479;-60
2022/09/13 16:40:23;;;;;;;1.43;1.40;;;27.60;64.50;;;;;;4958234;28;20451;-61
2022/09/13 16:42:50;;;;;;;3.33;1.40;;;27.50;67.20;;;;;;4957088;28;20455;-61
2022/09/13 16:45:17;;;;;;;2.00;1.63;;;27.40;67.90;;;;;;4956012;28;20888;-61
2022/09/13 16:47:45;;;;;;;2.70;1.30;;;27.30;68.30;;;;;;4955884;28;20502;-61
2022/09/13 16:50:11;;;;;;;2.00;1.70;;;27.30;67.30;;;;;;4956129;28;20568;-61
2022/09/13 16:52:39;;;;;;;1.53;1.47;;;27.20;68.70;;;;;;4955870;28;20475;-61
2022/09/13 16:55:06;;;;;;;10.70;1.90;;;27.10;68.90;;;;;;4955989;28;20451;-61
2022/09/13 16:57:33;;;;;;;1.87;1.47;;;27.00;69.40;;;;;;4955742;28;20451;-61
2022/09/13 17:00:02;;;;;;;1.73;1.63;;;26.90;70.20;;;;;;4955825;28;20472;-61
2022/09/13 17:02:29;;;;;;;2.40;1.53;;;26.90;70.50;;;;;;4955274;28;20487;-60
2022/09/13 17:04:58;;;;;;;1.80;1.57;;;26.90;70.80;;;;;;4955497;28;20942;-61
2022/09/13 17:07:24;;;;;;;7.17;1.40;;;26.80;69.70;;;;;;4955722;28;20531;-62
2022/09/13 17:09:51;;;;;;;1.60;1.50;;;26.70;68.60;;;;;;4955882;28;20459;-62
2022/09/13 17:12:18;;;;;;;2.23;1.43;;;26.60;67.10;;;;;;4955581;28;20558;-62